This is the latest recevied weather packets stored in our database for station/object GW1542. If no packets are shown the sender has not sent any weather packets the latest 10 day(s).
| Time | Temp. | Humidity | Pressure | Rain* | Wind** | Luminosity | Snow |
|---|---|---|---|---|---|---|---|
| 1777892430 | 3.89° C | 89% | 1015.5 hPa | 0 mm | - | - | - |
| 1777888488 | 3.33° C | 87% | 1015.5 hPa | 0 mm | - | - | - |
| 1777888097 | 3.33° C | 86% | 1015.5 hPa | 0 mm | - | - | - |
| 1777885574 | 3.89° C | 81% | 1015.5 hPa | 0 mm | - | - | - |
| 1777884142 | 3.89° C | 78% | 1015.9 hPa | 0 mm | - | - | - |
| 1777882695 | 3.33° C | 79% | 1015.9 hPa | 0 mm | - | - | - |
| 1777882336 | 3.33° C | 81% | 1015.9 hPa | 0 mm | - | - | - |
| 1777880176 | 3.33° C | 75% | 1015.9 hPa | 0 mm | - | - | - |
| 1777873000 | 2.22° C | 77% | 1016.2 hPa | 0 mm | - | - | - |
| 1777868671 | 4.44° C | 75% | 1016.2 hPa | 0 mm | - | - | - |
| 1777867605 | 4.44° C | 70% | 1016.2 hPa | 0 mm | - | - | - |
| 1777865773 | 3.89° C | 75% | 1016.5 hPa | 0 mm | - | - | - |
| 1777865436 | 3.89° C | 73% | 1016.5 hPa | 0 mm | - | - | - |
| 1777863254 | 3.33° C | 67% | 1016.5 hPa | 0 mm | - | - | - |
| 1777862540 | 3.89° C | 69% | 1016.5 hPa | 0 mm | - | - | - |
| 1777861827 | 3.89° C | 70% | 1016.5 hPa | 0 mm | - | - | - |
| 1777861114 | 3.89° C | 70% | 1016.5 hPa | 0 mm | - | - | - |
| 1777860380 | 4.44° C | 64% | 1016.5 hPa | 0 mm | - | - | - |
| 1777857134 | 3.33° C | 65% | 1016.2 hPa | 0 mm | - | - | - |
| 1777856079 | 4.44° C | 62% | 1016.2 hPa | 0 mm | - | - | - |
| 1777849972 | 10° C | 36% | 1015.9 hPa | 0 mm | - | - | - |
| 1777848143 | 11.11° C | 33% | 1015.9 hPa | 0 mm | - | - | - |
| 1777836981 | 10.56° C | 33% | 1016.9 hPa | 0 mm | - | - | - |
| 1777836644 | 10° C | 37% | 1016.9 hPa | 0 mm | - | - | - |
| 1777832334 | 10° C | 38% | 1017.6 hPa | 0 mm | - | - | - |
* Rain since midnight (hover to see other rain measurements)
** Current wind speed in m/s (hover to see current wind gust speed)